Kezdőlap
METAR-TAF:

METAR-TAF

Repülőterek :

Clinton Municipal Airport

Clinton, Iowa, Amerikai Egyesült Államok

földrajzi szélesség: 41-50N, földrajzi hosszúság: 090-20W, magasság: 216 m

Jelenlegi meteorológiai megfigyelések

A jelentés 45 perccel ezelõtt készült, 11:56 UTC
Déli szél 4 kt
Hőmérséklet 23°C
Páratartalom 100%
Légköri nyomás 1017 hPa
Látótávolság: 14.5 km
Szórványos felhőzet 6000 lábon
Szórványos felhőzet 10000 lábon

METAR: KCWI 281156Z AUTO 17004KT 9SM SCT060 SCT100 23/23 A3004 RMK AO2 TSE10 SLP168 T02280228 10244 20222 51000

Idő: 07:41 (12:41 UTC)


TAF: hiányzik

Meteorológiai megfigyelések és előrejelzések több, mint 4000 repülőtéren (METAR és TAF jelentéseket).

A térképen piros és sárga pontok jelzik az elérhető meteorológiai állomásokat.

Mozgassa az egeret a pont fölött, hogy megjelenjen az állomás neve.

Azután kattintson az időjárási megfigyelések és előrejelzések megtekintéséhez.

A térkép megváltoztatása: kattintson a fekete keresztel jelölt zöld gombra ráközelítéshez, a vonallal jelölt zöld gombra távolításhoz, vagy a zöld nyilakra a szomszédos térképek eléréséhez.


METAR-TAF: